sensor_id;sensor_type;location;lat;lon;timestamp;temperature;humidity
14061;DHT22;7105;43.616;1.434;2023-08-30T00:00:11;17.30;99.90
14061;DHT22;7105;43.616;1.434;2023-08-30T00:02:37;17.30;99.90
14061;DHT22;7105;43.616;1.434;2023-08-30T00:05:04;17.30;99.90
14061;DHT22;7105;43.616;1.434;2023-08-30T00:07:30;17.30;99.90
14061;DHT22;7105;43.616;1.434;2023-08-30T00:09:57;17.30;99.90
14061;DHT22;7105;43.616;1.434;2023-08-30T00:12:24;17.30;99.90
14061;DHT22;7105;43.616;1.434;2023-08-30T00:14:50;17.30;99.90
14061;DHT22;7105;43.616;1.434;2023-08-30T00:17:19;17.30;99.90
14061;DHT22;7105;43.616;1.434;2023-08-30T00:19:45;17.30;99.90
14061;DHT22;7105;43.616;1.434;2023-08-30T00:22:11;17.30;99.90
14061;DHT22;7105;43.616;1.434;2023-08-30T00:24:38;17.30;99.90
14061;DHT22;7105;43.616;1.434;2023-08-30T00:27:03;17.20;99.90
14061;DHT22;7105;43.616;1.434;2023-08-30T00:29:30;17.20;99.90
14061;DHT22;7105;43.616;1.434;2023-08-30T00:31:56;17.20;99.90
14061;DHT22;7105;43.616;1.434;2023-08-30T00:34:21;17.10;99.90
14061;DHT22;7105;43.616;1.434;2023-08-30T00:36:47;17.20;99.90
14061;DHT22;7105;43.616;1.434;2023-08-30T00:39:13;17.10;99.90
14061;DHT22;7105;43.616;1.434;2023-08-30T00:41:39;17.30;99.90
14061;DHT22;7105;43.616;1.434;2023-08-30T00:44:05;17.20;99.90
14061;DHT22;7105;43.616;1.434;2023-08-30T00:46:32;17.10;99.90
14061;DHT22;7105;43.616;1.434;2023-08-30T00:48:59;17.10;99.90
14061;DHT22;7105;43.616;1.434;2023-08-30T00:51:26;17.00;99.90
14061;DHT22;7105;43.616;1.434;2023-08-30T00:53:57;17.00;99.90
14061;DHT22;7105;43.616;1.434;2023-08-30T00:56:23;16.90;99.90
14061;DHT22;7105;43.616;1.434;2023-08-30T00:58:49;16.80;99.90
14061;DHT22;7105;43.616;1.434;2023-08-30T01:01:16;16.80;99.90
14061;DHT22;7105;43.616;1.434;2023-08-30T01:03:42;16.80;99.90
14061;DHT22;7105;43.616;1.434;2023-08-30T01:06:08;16.80;99.90
14061;DHT22;7105;43.616;1.434;2023-08-30T01:08:35;16.90;99.90
14061;DHT22;7105;43.616;1.434;2023-08-30T01:11:16;16.90;99.90
14061;DHT22;7105;43.616;1.434;2023-08-30T01:13:55;16.90;99.90
14061;DHT22;7105;43.616;1.434;2023-08-30T01:16:21;17.00;99.90
14061;DHT22;7105;43.616;1.434;2023-08-30T01:18:51;17.00;99.90
14061;DHT22;7105;43.616;1.434;2023-08-30T01:23:59;17.00;99.90
14061;DHT22;7105;43.616;1.434;2023-08-30T01:29:16;16.90;99.90
14061;DHT22;7105;43.616;1.434;2023-08-30T01:31:45;17.00;99.90
14061;DHT22;7105;43.616;1.434;2023-08-30T01:34:12;16.90;99.90
14061;DHT22;7105;43.616;1.434;2023-08-30T01:36:39;16.90;99.90
14061;DHT22;7105;43.616;1.434;2023-08-30T01:39:10;16.90;99.90
14061;DHT22;7105;43.616;1.434;2023-08-30T01:41:36;16.90;99.90
14061;DHT22;7105;43.616;1.434;2023-08-30T01:44:04;16.90;99.90
14061;DHT22;7105;43.616;1.434;2023-08-30T01:46:32;17.00;99.90
14061;DHT22;7105;43.616;1.434;2023-08-30T01:49:00;16.90;99.90
14061;DHT22;7105;43.616;1.434;2023-08-30T01:51:27;16.80;99.90
14061;DHT22;7105;43.616;1.434;2023-08-30T01:53:54;16.90;99.90
14061;DHT22;7105;43.616;1.434;2023-08-30T01:56:21;17.00;99.90
14061;DHT22;7105;43.616;1.434;2023-08-30T01:58:47;16.90;99.90
14061;DHT22;7105;43.616;1.434;2023-08-30T02:01:13;17.00;99.90
14061;DHT22;7105;43.616;1.434;2023-08-30T02:03:39;16.90;99.90
14061;DHT22;7105;43.616;1.434;2023-08-30T02:06:20;16.70;99.90
14061;DHT22;7105;43.616;1.434;2023-08-30T02:08:55;16.70;99.90
14061;DHT22;7105;43.616;1.434;2023-08-30T02:11:23;16.70;99.90
14061;DHT22;7105;43.616;1.434;2023-08-30T02:13:53;16.70;99.90
14061;DHT22;7105;43.616;1.434;2023-08-30T02:16:19;16.70;99.90
14061;DHT22;7105;43.616;1.434;2023-08-30T02:18:45;16.70;99.90
14061;DHT22;7105;43.616;1.434;2023-08-30T02:21:11;16.50;99.90
14061;DHT22;7105;43.616;1.434;2023-08-30T02:23:37;16.60;99.90
14061;DHT22;7105;43.616;1.434;2023-08-30T02:26:02;16.60;99.90
14061;DHT22;7105;43.616;1.434;2023-08-30T02:28:31;16.60;99.90
14061;DHT22;7105;43.616;1.434;2023-08-30T02:30:56;16.60;99.90
14061;DHT22;7105;43.616;1.434;2023-08-30T02:33:22;16.70;99.90
14061;DHT22;7105;43.616;1.434;2023-08-30T02:35:48;16.70;99.90
14061;DHT22;7105;43.616;1.434;2023-08-30T02:38:13;16.60;99.90
14061;DHT22;7105;43.616;1.434;2023-08-30T02:40:39;16.70;99.90
14061;DHT22;7105;43.616;1.434;2023-08-30T02:43:05;16.80;99.90
14061;DHT22;7105;43.616;1.434;2023-08-30T02:45:30;16.70;99.90
14061;DHT22;7105;43.616;1.434;2023-08-30T02:47:56;16.70;99.90
14061;DHT22;7105;43.616;1.434;2023-08-30T02:50:23;16.70;99.90
14061;DHT22;7105;43.616;1.434;2023-08-30T02:52:48;16.70;99.90
14061;DHT22;7105;43.616;1.434;2023-08-30T02:55:14;16.70;99.90
14061;DHT22;7105;43.616;1.434;2023-08-30T02:57:40;16.60;99.90
14061;DHT22;7105;43.616;1.434;2023-08-30T03:00:06;16.60;99.90
14061;DHT22;7105;43.616;1.434;2023-08-30T03:02:32;16.70;99.90
14061;DHT22;7105;43.616;1.434;2023-08-30T03:04:59;16.60;99.90
14061;DHT22;7105;43.616;1.434;2023-08-30T03:07:25;16.50;99.90
14061;DHT22;7105;43.616;1.434;2023-08-30T03:09:54;16.50;99.90
14061;DHT22;7105;43.616;1.434;2023-08-30T03:12:20;16.40;99.90
14061;DHT22;7105;43.616;1.434;2023-08-30T03:14:46;16.40;99.90
14061;DHT22;7105;43.616;1.434;2023-08-30T03:17:11;16.40;99.90
14061;DHT22;7105;43.616;1.434;2023-08-30T03:19:37;16.30;99.90
14061;DHT22;7105;43.616;1.434;2023-08-30T03:22:03;16.40;99.90
14061;DHT22;7105;43.616;1.434;2023-08-30T03:24:28;16.30;99.90
14061;DHT22;7105;43.616;1.434;2023-08-30T03:26:54;16.30;99.90
14061;DHT22;7105;43.616;1.434;2023-08-30T03:29:20;16.20;99.90
14061;DHT22;7105;43.616;1.434;2023-08-30T03:31:47;16.30;99.90
14061;DHT22;7105;43.616;1.434;2023-08-30T03:34:13;16.30;99.90
14061;DHT22;7105;43.616;1.434;2023-08-30T03:36:40;16.30;99.90
14061;DHT22;7105;43.616;1.434;2023-08-30T03:39:08;16.30;99.90
14061;DHT22;7105;43.616;1.434;2023-08-30T03:41:33;16.40;99.90
14061;DHT22;7105;43.616;1.434;2023-08-30T03:43:59;16.40;99.90
14061;DHT22;7105;43.616;1.434;2023-08-30T03:46:24;16.40;99.90
14061;DHT22;7105;43.616;1.434;2023-08-30T03:48:50;16.30;99.90
14061;DHT22;7105;43.616;1.434;2023-08-30T03:51:16;16.30;99.90
14061;DHT22;7105;43.616;1.434;2023-08-30T03:53:41;16.30;99.90
14061;DHT22;7105;43.616;1.434;2023-08-30T03:56:07;16.30;99.90
14061;DHT22;7105;43.616;1.434;2023-08-30T03:58:33;16.30;99.90
14061;DHT22;7105;43.616;1.434;2023-08-30T04:00:59;16.30;99.90
14061;DHT22;7105;43.616;1.434;2023-08-30T04:03:24;16.30;99.90
14061;DHT22;7105;43.616;1.434;2023-08-30T04:05:56;16.20;99.90
14061;DHT22;7105;43.616;1.434;2023-08-30T04:08:22;16.30;99.90
14061;DHT22;7105;43.616;1.434;2023-08-30T04:10:48;16.20;99.90
14061;DHT22;7105;43.616;1.434;2023-08-30T04:13:17;16.30;99.90
14061;DHT22;7105;43.616;1.434;2023-08-30T04:15:42;16.20;99.90
14061;DHT22;7105;43.616;1.434;2023-08-30T04:18:08;16.10;99.90
14061;DHT22;7105;43.616;1.434;2023-08-30T04:20:34;16.20;99.90
14061;DHT22;7105;43.616;1.434;2023-08-30T04:23:00;16.20;99.90
14061;DHT22;7105;43.616;1.434;2023-08-30T04:25:30;16.20;99.90
14061;DHT22;7105;43.616;1.434;2023-08-30T04:27:56;16.20;99.90
14061;DHT22;7105;43.616;1.434;2023-08-30T04:30:21;16.30;99.90
14061;DHT22;7105;43.616;1.434;2023-08-30T04:32:47;16.30;99.90
14061;DHT22;7105;43.616;1.434;2023-08-30T04:35:13;16.20;99.90
14061;DHT22;7105;43.616;1.434;2023-08-30T04:37:38;16.10;99.90
14061;DHT22;7105;43.616;1.434;2023-08-30T04:40:06;16.10;99.90
14061;DHT22;7105;43.616;1.434;2023-08-30T04:42:32;16.10;99.90
14061;DHT22;7105;43.616;1.434;2023-08-30T04:44:58;16.10;99.90
14061;DHT22;7105;43.616;1.434;2023-08-30T04:47:27;16.10;99.90
14061;DHT22;7105;43.616;1.434;2023-08-30T04:49:53;15.90;99.90
14061;DHT22;7105;43.616;1.434;2023-08-30T04:52:19;15.70;99.90
14061;DHT22;7105;43.616;1.434;2023-08-30T04:54:44;15.70;99.90
14061;DHT22;7105;43.616;1.434;2023-08-30T04:57:11;15.70;99.90
14061;DHT22;7105;43.616;1.434;2023-08-30T04:59:40;15.70;99.90
14061;DHT22;7105;43.616;1.434;2023-08-30T05:02:06;15.70;99.90
14061;DHT22;7105;43.616;1.434;2023-08-30T05:04:32;15.90;99.90
14061;DHT22;7105;43.616;1.434;2023-08-30T05:06:57;15.90;99.90
14061;DHT22;7105;43.616;1.434;2023-08-30T05:09:23;16.10;99.90
14061;DHT22;7105;43.616;1.434;2023-08-30T05:11:51;16.20;99.90
14061;DHT22;7105;43.616;1.434;2023-08-30T05:14:17;16.20;99.90
14061;DHT22;7105;43.616;1.434;2023-08-30T05:16:42;16.30;99.90
14061;DHT22;7105;43.616;1.434;2023-08-30T05:19:08;16.30;99.90
14061;DHT22;7105;43.616;1.434;2023-08-30T05:21:34;16.30;99.90
14061;DHT22;7105;43.616;1.434;2023-08-30T05:23:59;16.30;99.90
14061;DHT22;7105;43.616;1.434;2023-08-30T05:26:25;16.40;99.90
14061;DHT22;7105;43.616;1.434;2023-08-30T05:28:51;16.40;99.90
14061;DHT22;7105;43.616;1.434;2023-08-30T05:31:17;16.30;99.90
14061;DHT22;7105;43.616;1.434;2023-08-30T05:33:43;16.30;99.90
14061;DHT22;7105;43.616;1.434;2023-08-30T05:36:08;16.60;99.90
14061;DHT22;7105;43.616;1.434;2023-08-30T05:38:34;16.70;99.90
14061;DHT22;7105;43.616;1.434;2023-08-30T05:41:00;16.70;99.90
14061;DHT22;7105;43.616;1.434;2023-08-30T05:43:25;16.70;99.90
14061;DHT22;7105;43.616;1.434;2023-08-30T05:45:51;16.90;99.90
14061;DHT22;7105;43.616;1.434;2023-08-30T05:48:17;16.90;99.90
14061;DHT22;7105;43.616;1.434;2023-08-30T05:50:42;17.00;99.90
14061;DHT22;7105;43.616;1.434;2023-08-30T05:53:08;17.10;99.90
14061;DHT22;7105;43.616;1.434;2023-08-30T05:55:34;16.90;99.90
14061;DHT22;7105;43.616;1.434;2023-08-30T05:57:59;17.10;99.90
14061;DHT22;7105;43.616;1.434;2023-08-30T06:00:25;17.10;99.90
14061;DHT22;7105;43.616;1.434;2023-08-30T06:02:51;17.00;99.90
14061;DHT22;7105;43.616;1.434;2023-08-30T06:05:18;17.10;99.90
14061;DHT22;7105;43.616;1.434;2023-08-30T06:07:43;17.30;99.90
14061;DHT22;7105;43.616;1.434;2023-08-30T06:10:10;17.50;99.90
14061;DHT22;7105;43.616;1.434;2023-08-30T06:12:35;17.60;99.90
14061;DHT22;7105;43.616;1.434;2023-08-30T06:15:01;17.50;99.90
14061;DHT22;7105;43.616;1.434;2023-08-30T06:17:27;17.30;99.90
14061;DHT22;7105;43.616;1.434;2023-08-30T06:19:52;17.00;99.90
14061;DHT22;7105;43.616;1.434;2023-08-30T06:22:18;17.20;99.90
14061;DHT22;7105;43.616;1.434;2023-08-30T06:24:44;17.20;99.90
14061;DHT22;7105;43.616;1.434;2023-08-30T06:27:09;17.30;99.90
14061;DHT22;7105;43.616;1.434;2023-08-30T06:29:35;17.50;99.90
14061;DHT22;7105;43.616;1.434;2023-08-30T06:32:01;17.60;99.90
14061;DHT22;7105;43.616;1.434;2023-08-30T06:34:26;17.70;99.90
14061;DHT22;7105;43.616;1.434;2023-08-30T06:36:52;17.70;99.90
14061;DHT22;7105;43.616;1.434;2023-08-30T06:39:18;17.90;99.90
14061;DHT22;7105;43.616;1.434;2023-08-30T06:41:44;17.80;99.90
14061;DHT22;7105;43.616;1.434;2023-08-30T06:44:09;17.90;99.90
14061;DHT22;7105;43.616;1.434;2023-08-30T06:46:36;17.70;99.90
14061;DHT22;7105;43.616;1.434;2023-08-30T06:49:03;17.50;99.90
14061;DHT22;7105;43.616;1.434;2023-08-30T06:51:29;18.00;99.90
14061;DHT22;7105;43.616;1.434;2023-08-30T06:53:54;18.60;99.90
14061;DHT22;7105;43.616;1.434;2023-08-30T06:56:22;17.90;99.90
14061;DHT22;7105;43.616;1.434;2023-08-30T06:58:48;18.00;99.90
14061;DHT22;7105;43.616;1.434;2023-08-30T07:01:14;18.10;99.90
14061;DHT22;7105;43.616;1.434;2023-08-30T07:03:39;17.90;99.90
14061;DHT22;7105;43.616;1.434;2023-08-30T07:06:05;18.10;99.90
14061;DHT22;7105;43.616;1.434;2023-08-30T07:08:31;17.90;99.90
14061;DHT22;7105;43.616;1.434;2023-08-30T07:10:58;17.70;99.90
14061;DHT22;7105;43.616;1.434;2023-08-30T07:13:24;17.70;99.90
14061;DHT22;7105;43.616;1.434;2023-08-30T07:15:57;17.80;99.90
14061;DHT22;7105;43.616;1.434;2023-08-30T07:18:25;17.80;99.90
14061;DHT22;7105;43.616;1.434;2023-08-30T07:20:51;17.80;99.90
14061;DHT22;7105;43.616;1.434;2023-08-30T07:23:17;18.00;99.90
14061;DHT22;7105;43.616;1.434;2023-08-30T07:25:42;18.00;99.90
14061;DHT22;7105;43.616;1.434;2023-08-30T07:28:08;17.90;99.90
14061;DHT22;7105;43.616;1.434;2023-08-30T07:30:34;17.80;99.90
14061;DHT22;7105;43.616;1.434;2023-08-30T07:33:04;17.70;99.90
14061;DHT22;7105;43.616;1.434;2023-08-30T07:35:30;17.70;99.90
14061;DHT22;7105;43.616;1.434;2023-08-30T07:37:56;17.60;99.90
14061;DHT22;7105;43.616;1.434;2023-08-30T07:40:22;17.50;99.90
14061;DHT22;7105;43.616;1.434;2023-08-30T07:42:51;17.70;99.90
14061;DHT22;7105;43.616;1.434;2023-08-30T07:45:18;17.70;99.90
14061;DHT22;7105;43.616;1.434;2023-08-30T07:47:43;17.70;99.90
14061;DHT22;7105;43.616;1.434;2023-08-30T07:50:09;17.90;99.90
14061;DHT22;7105;43.616;1.434;2023-08-30T07:52:35;17.90;99.90
14061;DHT22;7105;43.616;1.434;2023-08-30T07:55:00;17.90;99.90
14061;DHT22;7105;43.616;1.434;2023-08-30T07:57:27;18.00;99.90
14061;DHT22;7105;43.616;1.434;2023-08-30T07:59:52;18.30;99.90
14061;DHT22;7105;43.616;1.434;2023-08-30T08:02:18;18.60;99.90
14061;DHT22;7105;43.616;1.434;2023-08-30T08:04:44;18.70;99.90
14061;DHT22;7105;43.616;1.434;2023-08-30T08:07:10;18.90;99.90
14061;DHT22;7105;43.616;1.434;2023-08-30T08:09:35;18.80;99.90
14061;DHT22;7105;43.616;1.434;2023-08-30T08:12:03;18.40;99.90
14061;DHT22;7105;43.616;1.434;2023-08-30T08:14:29;18.30;99.90
14061;DHT22;7105;43.616;1.434;2023-08-30T08:16:54;18.30;99.90
14061;DHT22;7105;43.616;1.434;2023-08-30T08:19:21;18.40;99.90
14061;DHT22;7105;43.616;1.434;2023-08-30T08:21:47;18.20;99.90
14061;DHT22;7105;43.616;1.434;2023-08-30T08:24:13;18.20;99.90
14061;DHT22;7105;43.616;1.434;2023-08-30T08:26:39;18.30;99.90
14061;DHT22;7105;43.616;1.434;2023-08-30T08:29:05;18.20;99.90
14061;DHT22;7105;43.616;1.434;2023-08-30T08:31:30;18.20;99.90
14061;DHT22;7105;43.616;1.434;2023-08-30T08:34:08;18.40;99.90
14061;DHT22;7105;43.616;1.434;2023-08-30T08:36:34;18.40;99.90
14061;DHT22;7105;43.616;1.434;2023-08-30T08:39:00;18.50;99.90
14061;DHT22;7105;43.616;1.434;2023-08-30T08:41:29;18.50;99.90
14061;DHT22;7105;43.616;1.434;2023-08-30T08:43:58;19.20;99.90
14061;DHT22;7105;43.616;1.434;2023-08-30T08:46:26;19.30;99.90
14061;DHT22;7105;43.616;1.434;2023-08-30T08:48:55;19.10;99.90
14061;DHT22;7105;43.616;1.434;2023-08-30T08:51:21;18.90;99.90
14061;DHT22;7105;43.616;1.434;2023-08-30T08:53:49;18.60;99.90
14061;DHT22;7105;43.616;1.434;2023-08-30T08:56:16;18.50;99.90
14061;DHT22;7105;43.616;1.434;2023-08-30T08:58:42;18.60;99.90
14061;DHT22;7105;43.616;1.434;2023-08-30T09:01:09;18.40;99.90
14061;DHT22;7105;43.616;1.434;2023-08-30T09:03:37;18.40;99.90
14061;DHT22;7105;43.616;1.434;2023-08-30T09:06:03;18.20;99.90
14061;DHT22;7105;43.616;1.434;2023-08-30T09:08:29;18.50;99.90
14061;DHT22;7105;43.616;1.434;2023-08-30T09:10:55;18.50;99.90
14061;DHT22;7105;43.616;1.434;2023-08-30T09:13:20;18.60;99.90
14061;DHT22;7105;43.616;1.434;2023-08-30T09:15:48;19.00;99.90
14061;DHT22;7105;43.616;1.434;2023-08-30T09:18:18;19.00;99.90
14061;DHT22;7105;43.616;1.434;2023-08-30T09:20:44;19.50;99.90
14061;DHT22;7105;43.616;1.434;2023-08-30T09:23:20;20.80;99.90
14061;DHT22;7105;43.616;1.434;2023-08-30T09:25:46;21.10;99.90
14061;DHT22;7105;43.616;1.434;2023-08-30T09:28:12;20.50;99.90
14061;DHT22;7105;43.616;1.434;2023-08-30T09:30:39;19.60;99.90
14061;DHT22;7105;43.616;1.434;2023-08-30T09:33:05;19.30;99.90
14061;DHT22;7105;43.616;1.434;2023-08-30T09:35:31;19.00;99.90
14061;DHT22;7105;43.616;1.434;2023-08-30T09:37:57;18.70;99.90
14061;DHT22;7105;43.616;1.434;2023-08-30T09:40:23;18.70;99.90
14061;DHT22;7105;43.616;1.434;2023-08-30T09:42:48;19.00;99.90
14061;DHT22;7105;43.616;1.434;2023-08-30T09:45:27;19.30;99.90
14061;DHT22;7105;43.616;1.434;2023-08-30T09:47:52;19.30;99.90
14061;DHT22;7105;43.616;1.434;2023-08-30T09:50:21;19.60;99.90
14061;DHT22;7105;43.616;1.434;2023-08-30T09:52:48;20.10;99.90
14061;DHT22;7105;43.616;1.434;2023-08-30T09:55:18;19.60;99.90
14061;DHT22;7105;43.616;1.434;2023-08-30T09:57:44;19.40;99.90
14061;DHT22;7105;43.616;1.434;2023-08-30T10:00:11;19.60;99.90
14061;DHT22;7105;43.616;1.434;2023-08-30T10:02:41;20.20;99.90
14061;DHT22;7105;43.616;1.434;2023-08-30T10:05:10;20.50;99.90
14061;DHT22;7105;43.616;1.434;2023-08-30T10:07:36;20.80;99.90
14061;DHT22;7105;43.616;1.434;2023-08-30T10:10:07;21.30;99.90
14061;DHT22;7105;43.616;1.434;2023-08-30T10:12:33;21.30;99.90
14061;DHT22;7105;43.616;1.434;2023-08-30T10:14:59;21.20;99.90
14061;DHT22;7105;43.616;1.434;2023-08-30T10:17:31;21.20;99.90
14061;DHT22;7105;43.616;1.434;2023-08-30T10:19:59;21.60;99.90
14061;DHT22;7105;43.616;1.434;2023-08-30T10:22:26;21.50;99.90
14061;DHT22;7105;43.616;1.434;2023-08-30T10:24:55;20.40;99.90
14061;DHT22;7105;43.616;1.434;2023-08-30T10:27:22;20.20;99.90
14061;DHT22;7105;43.616;1.434;2023-08-30T10:29:50;19.90;99.90
14061;DHT22;7105;43.616;1.434;2023-08-30T10:32:22;20.20;99.90
14061;DHT22;7105;43.616;1.434;2023-08-30T10:34:49;20.40;99.90
14061;DHT22;7105;43.616;1.434;2023-08-30T10:37:15;20.30;99.90
14061;DHT22;7105;43.616;1.434;2023-08-30T10:39:42;20.00;99.90
14061;DHT22;7105;43.616;1.434;2023-08-30T10:42:12;20.50;99.90
14061;DHT22;7105;43.616;1.434;2023-08-30T10:44:52;20.50;99.90
14061;DHT22;7105;43.616;1.434;2023-08-30T10:47:19;20.60;99.90
14061;DHT22;7105;43.616;1.434;2023-08-30T10:49:47;20.70;99.90
14061;DHT22;7105;43.616;1.434;2023-08-30T10:52:13;21.00;99.90
14061;DHT22;7105;43.616;1.434;2023-08-30T10:54:39;21.20;99.90
14061;DHT22;7105;43.616;1.434;2023-08-30T10:57:05;21.50;99.90
14061;DHT22;7105;43.616;1.434;2023-08-30T10:59:37;20.80;99.90
14061;DHT22;7105;43.616;1.434;2023-08-30T11:02:03;20.60;99.90
14061;DHT22;7105;43.616;1.434;2023-08-30T11:04:30;20.70;99.90
14061;DHT22;7105;43.616;1.434;2023-08-30T11:06:56;20.70;99.90
14061;DHT22;7105;43.616;1.434;2023-08-30T11:09:23;20.60;99.90
14061;DHT22;7105;43.616;1.434;2023-08-30T11:11:50;20.60;99.90
14061;DHT22;7105;43.616;1.434;2023-08-30T11:14:17;21.10;99.90
14061;DHT22;7105;43.616;1.434;2023-08-30T11:16:44;21.50;99.90
14061;DHT22;7105;43.616;1.434;2023-08-30T11:19:11;21.60;99.90
14061;DHT22;7105;43.616;1.434;2023-08-30T11:21:44;21.40;99.90
14061;DHT22;7105;43.616;1.434;2023-08-30T11:24:10;21.40;99.90
14061;DHT22;7105;43.616;1.434;2023-08-30T11:26:36;21.80;99.90
14061;DHT22;7105;43.616;1.434;2023-08-30T11:29:09;21.80;99.90
14061;DHT22;7105;43.616;1.434;2023-08-30T11:31:35;22.00;99.90
14061;DHT22;7105;43.616;1.434;2023-08-30T11:34:01;22.30;99.90
14061;DHT22;7105;43.616;1.434;2023-08-30T11:36:32;22.00;99.90
14061;DHT22;7105;43.616;1.434;2023-08-30T11:39:00;21.60;99.90
14061;DHT22;7105;43.616;1.434;2023-08-30T11:41:26;21.20;99.90
14061;DHT22;7105;43.616;1.434;2023-08-30T11:43:53;21.30;99.90
14061;DHT22;7105;43.616;1.434;2023-08-30T11:46:19;21.70;99.90
14061;DHT22;7105;43.616;1.434;2023-08-30T11:48:50;21.60;99.90
14061;DHT22;7105;43.616;1.434;2023-08-30T11:51:17;21.60;99.90
14061;DHT22;7105;43.616;1.434;2023-08-30T11:53:44;22.20;99.90
14061;DHT22;7105;43.616;1.434;2023-08-30T11:56:10;21.90;99.90
14061;DHT22;7105;43.616;1.434;2023-08-30T11:58:38;22.30;99.90
14061;DHT22;7105;43.616;1.434;2023-08-30T12:01:04;22.20;99.90
14061;DHT22;7105;43.616;1.434;2023-08-30T12:03:31;22.60;99.90
14061;DHT22;7105;43.616;1.434;2023-08-30T12:05:57;22.50;99.90
14061;DHT22;7105;43.616;1.434;2023-08-30T12:08:25;22.60;99.90
14061;DHT22;7105;43.616;1.434;2023-08-30T12:10:53;22.40;99.90
14061;DHT22;7105;43.616;1.434;2023-08-30T12:13:25;21.60;99.90
14061;DHT22;7105;43.616;1.434;2023-08-30T12:15:54;21.60;99.90
14061;DHT22;7105;43.616;1.434;2023-08-30T12:18:24;22.10;99.90
14061;DHT22;7105;43.616;1.434;2023-08-30T12:21:02;22.90;99.90
14061;DHT22;7105;43.616;1.434;2023-08-30T12:23:32;22.70;99.90
14061;DHT22;7105;43.616;1.434;2023-08-30T12:26:09;22.60;99.90
14061;DHT22;7105;43.616;1.434;2023-08-30T12:28:37;22.10;99.90
14061;DHT22;7105;43.616;1.434;2023-08-30T12:31:03;22.30;99.90
14061;DHT22;7105;43.616;1.434;2023-08-30T12:33:33;22.40;99.90
14061;DHT22;7105;43.616;1.434;2023-08-30T12:35:59;22.30;99.90
14061;DHT22;7105;43.616;1.434;2023-08-30T12:38:25;22.00;99.90
14061;DHT22;7105;43.616;1.434;2023-08-30T12:40:52;22.40;99.90
14061;DHT22;7105;43.616;1.434;2023-08-30T12:43:19;22.20;99.90
14061;DHT22;7105;43.616;1.434;2023-08-30T12:45:45;22.40;99.90
14061;DHT22;7105;43.616;1.434;2023-08-30T12:48:12;22.50;99.90
14061;DHT22;7105;43.616;1.434;2023-08-30T12:50:39;22.80;99.90
14061;DHT22;7105;43.616;1.434;2023-08-30T12:53:06;22.90;99.90
14061;DHT22;7105;43.616;1.434;2023-08-30T12:55:32;22.70;99.90
14061;DHT22;7105;43.616;1.434;2023-08-30T12:58:00;22.80;99.90
14061;DHT22;7105;43.616;1.434;2023-08-30T13:00:26;22.90;99.90
14061;DHT22;7105;43.616;1.434;2023-08-30T13:02:52;23.30;99.90
14061;DHT22;7105;43.616;1.434;2023-08-30T13:05:18;23.20;99.90
14061;DHT22;7105;43.616;1.434;2023-08-30T13:07:44;22.70;99.90
14061;DHT22;7105;43.616;1.434;2023-08-30T13:10:10;23.10;99.90
14061;DHT22;7105;43.616;1.434;2023-08-30T13:12:37;23.40;99.90
14061;DHT22;7105;43.616;1.434;2023-08-30T13:15:04;23.40;99.90
14061;DHT22;7105;43.616;1.434;2023-08-30T13:17:30;23.20;99.90
14061;DHT22;7105;43.616;1.434;2023-08-30T13:19:55;22.90;99.90
14061;DHT22;7105;43.616;1.434;2023-08-30T13:22:23;22.70;99.90
14061;DHT22;7105;43.616;1.434;2023-08-30T13:24:49;22.70;99.90
14061;DHT22;7105;43.616;1.434;2023-08-30T13:27:15;23.00;99.90
14061;DHT22;7105;43.616;1.434;2023-08-30T13:29:41;23.00;99.90
14061;DHT22;7105;43.616;1.434;2023-08-30T13:32:06;22.90;99.90
14061;DHT22;7105;43.616;1.434;2023-08-30T13:34:32;22.90;99.90
14061;DHT22;7105;43.616;1.434;2023-08-30T13:36:57;22.80;99.90
14061;DHT22;7105;43.616;1.434;2023-08-30T13:39:23;22.50;99.90
14061;DHT22;7105;43.616;1.434;2023-08-30T13:41:49;22.70;99.90
14061;DHT22;7105;43.616;1.434;2023-08-30T13:44:15;22.70;99.90
14061;DHT22;7105;43.616;1.434;2023-08-30T13:46:41;23.10;99.90
14061;DHT22;7105;43.616;1.434;2023-08-30T13:49:08;23.00;99.90
14061;DHT22;7105;43.616;1.434;2023-08-30T13:51:34;23.00;99.90
14061;DHT22;7105;43.616;1.434;2023-08-30T13:53:59;23.00;99.90
14061;DHT22;7105;43.616;1.434;2023-08-30T13:56:25;22.80;99.90
14061;DHT22;7105;43.616;1.434;2023-08-30T13:58:52;22.90;99.90
14061;DHT22;7105;43.616;1.434;2023-08-30T14:01:18;22.60;99.90
14061;DHT22;7105;43.616;1.434;2023-08-30T14:03:44;22.80;99.90
14061;DHT22;7105;43.616;1.434;2023-08-30T14:06:09;23.00;99.90
14061;DHT22;7105;43.616;1.434;2023-08-30T14:08:35;23.10;99.90
14061;DHT22;7105;43.616;1.434;2023-08-30T14:11:01;22.90;99.90
14061;DHT22;7105;43.616;1.434;2023-08-30T14:13:27;22.80;99.90
14061;DHT22;7105;43.616;1.434;2023-08-30T14:15:59;22.90;99.90
14061;DHT22;7105;43.616;1.434;2023-08-30T14:18:26;23.20;99.90
14061;DHT22;7105;43.616;1.434;2023-08-30T14:20:58;23.20;99.90
14061;DHT22;7105;43.616;1.434;2023-08-30T14:23:29;23.30;99.90
14061;DHT22;7105;43.616;1.434;2023-08-30T14:26:04;23.30;99.90
14061;DHT22;7105;43.616;1.434;2023-08-30T14:28:39;23.50;99.90
14061;DHT22;7105;43.616;1.434;2023-08-30T14:31:08;23.90;99.90
14061;DHT22;7105;43.616;1.434;2023-08-30T14:33:34;23.50;99.90
14061;DHT22;7105;43.616;1.434;2023-08-30T14:36:00;23.10;99.90
14061;DHT22;7105;43.616;1.434;2023-08-30T14:38:29;23.30;99.90
14061;DHT22;7105;43.616;1.434;2023-08-30T14:40:59;23.10;99.90
14061;DHT22;7105;43.616;1.434;2023-08-30T14:43:25;23.30;99.90
14061;DHT22;7105;43.616;1.434;2023-08-30T14:45:51;23.10;99.90
14061;DHT22;7105;43.616;1.434;2023-08-30T14:48:17;23.00;99.90
14061;DHT22;7105;43.616;1.434;2023-08-30T14:50:42;23.10;99.90
14061;DHT22;7105;43.616;1.434;2023-08-30T14:53:08;23.20;99.90
14061;DHT22;7105;43.616;1.434;2023-08-30T14:55:34;23.20;99.90
14061;DHT22;7105;43.616;1.434;2023-08-30T14:58:00;23.50;99.90
14061;DHT22;7105;43.616;1.434;2023-08-30T15:00:26;23.70;99.90
14061;DHT22;7105;43.616;1.434;2023-08-30T15:02:51;23.90;99.90
14061;DHT22;7105;43.616;1.434;2023-08-30T15:05:17;24.00;99.90
14061;DHT22;7105;43.616;1.434;2023-08-30T15:07:43;24.10;99.90
14061;DHT22;7105;43.616;1.434;2023-08-30T15:10:09;23.80;99.90
14061;DHT22;7105;43.616;1.434;2023-08-30T15:12:35;23.90;99.90
14061;DHT22;7105;43.616;1.434;2023-08-30T15:15:02;23.90;99.90
14061;DHT22;7105;43.616;1.434;2023-08-30T15:17:28;23.90;99.90
14061;DHT22;7105;43.616;1.434;2023-08-30T15:19:53;24.00;99.90
14061;DHT22;7105;43.616;1.434;2023-08-30T15:22:19;23.70;99.90
14061;DHT22;7105;43.616;1.434;2023-08-30T15:24:45;23.90;99.90
14061;DHT22;7105;43.616;1.434;2023-08-30T15:27:11;23.90;99.90
14061;DHT22;7105;43.616;1.434;2023-08-30T15:29:36;23.70;99.90
14061;DHT22;7105;43.616;1.434;2023-08-30T15:32:02;23.60;99.90
14061;DHT22;7105;43.616;1.434;2023-08-30T15:34:28;23.90;99.90
14061;DHT22;7105;43.616;1.434;2023-08-30T15:36:53;23.90;99.90
14061;DHT22;7105;43.616;1.434;2023-08-30T15:39:19;23.90;99.90
14061;DHT22;7105;43.616;1.434;2023-08-30T15:41:45;23.90;99.90
14061;DHT22;7105;43.616;1.434;2023-08-30T15:44:12;23.80;99.90
14061;DHT22;7105;43.616;1.434;2023-08-30T15:46:37;23.50;99.90